Home   Weather   USA   Rochester   Past weeks
Flag for USA

Past Weather in Rochester, Minnesota, USA — Yesterday and Last 2 Weeks

Currently: 75 °F. Sunny. (Weather station: St Mary's Hospital Heliport Rochester, USA). See more current weather

Past Weather in Rochester — Graph

°F

Rochester Temperature Yesterday

Maximum temperature yesterday: 73 °F (at 5:15 pm)
Minimum temperature yesterday: 58 °F (at 7:35 am)
Average temperature yesterday: 66 °F

High & Low Weather Summary for the Past Weeks

 TemperatureHumidityPressure
High88 °F (Aug 2, 4:55 pm)100% (Aug 6, 4:15 am)30.33 "Hg (Aug 6, 4:15 am)
Low57 °F (Aug 9, 5:55 am)34% (Aug 3, 4:35 pm)29.66 "Hg (Aug 2, 9:35 pm)
Average70 °F78%30.04 "Hg
* Reported Aug 1 6:15 pm — Aug 16 6:15 pm, Rochester. Weather by CustomWeather, © 2022

Note: Actual official high and low records may vary slightly from our data, if they occured in-between our weather recording intervals... More about our weather records

Rochester Weather History for the Previous 24 Hours

Scroll right to see more
 ConditionsComfort  
Time TempWeatherWind HumidityBarometerVisibility
6:15 pm
Tue, Aug 16
76 °FSunny.6 mph46%30.15 "Hg10 mi
5:55 pm76 °FScattered clouds.6 mph46%30.15 "Hg10 mi
5:35 pm77 °FScattered clouds.5 mph45%30.15 "Hg10 mi
5:15 pm77 °FSunny.5 mph42%30.16 "Hg10 mi
4:55 pm77 °FSunny.7 mph41%30.16 "Hg10 mi
4:35 pm77 °FSunny.6 mph39%30.16 "Hg10 mi
4:15 pm77 °FSunny.7 mph37%30.16 "Hg10 mi
3:55 pm77 °FScattered clouds.3 mph40%30.16 "Hg10 mi
3:35 pm77 °FPartly sunny.6 mph40%30.16 "Hg10 mi
3:15 pm78 °FScattered clouds.6 mph44%30.17 "Hg7 mi
2:35 pm77 °FScattered clouds.5 mph43%30.17 "Hg10 mi
2:15 pm76 °FPartly sunny.7 mph47%30.18 "Hg10 mi
1:35 pm78 °FScattered clouds.No wind46%30.18 "Hg10 mi
12:55 pm75 °FSunny.5 mph46%30.19 "Hg10 mi
12:15 pm75 °FScattered clouds.6 mph48%30.19 "Hg10 mi
11:35 am74 °FOvercast.No wind53%30.19 "Hg10 mi
11:15 am72 °FOvercast.3 mph55%30.19 "Hg10 mi
10:55 am71 °FOvercast.3 mph58%30.19 "Hg10 mi
10:15 am71 °FScattered clouds.7 mph65%30.19 "Hg10 mi
9:55 am70 °FSunny.No wind74%30.19 "Hg10 mi
9:15 am67 °FSunny.3 mph82%30.19 "Hg10 mi
8:15 am62 °FOvercast.3 mph99%30.18 "Hg10 mi
7:35 am62 °FSunny.No wind98%30.18 "Hg7 mi
7:15 am62 °FSunny.No wind97%30.18 "Hg10 mi
6:55 am62 °FSunny.No wind100%30.17 "Hg10 mi
6:15 am61 °FSunny.No wind100%30.16 "Hg10 mi
5:55 am60 °FClear.No wind100%30.15 "Hg10 mi
5:15 am61 °FClear.No wind99%30.15 "Hg10 mi
4:55 am62 °FClear.No wind98%30.15 "Hg10 mi
4:35 am62 °FClear.No wind98%30.15 "Hg10 mi
4:15 am62 °FClear.No wind99%30.15 "Hg10 mi
3:35 am62 °FClear.No wind99%30.15 "Hg10 mi
3:15 am62 °FClear.No wind99%30.15 "Hg10 mi
2:35 am62 °FClear.No wind100%30.15 "Hg10 mi
1:55 am63 °FClear.No wind97%30.14 "Hg10 mi
1:15 am64 °FClear.No wind98%30.14 "Hg10 mi
12:55 am64 °FClear.No wind99%30.14 "Hg10 mi
12:35 am64 °FClear.3 mph99%30.14 "Hg10 mi
12:15 am64 °FClear.3 mph100%30.14 "Hg10 mi
11:55 pm
Mon, Aug 15
65 °FClear.No wind98%30.14 "Hg10 mi
11:35 pm65 °FClear.3 mph97%30.14 "Hg10 mi
11:15 pm66 °FClear.No wind92%30.15 "Hg10 mi
10:55 pm66 °FClear.No wind95%30.15 "Hg10 mi
10:35 pm66 °FClear.No wind92%30.14 "Hg10 mi
10:15 pm67 °FClear.3 mph89%30.15 "Hg10 mi
9:55 pm68 °FClear.3 mph87%30.14 "Hg10 mi
9:35 pm69 °FClear.No wind82%30.14 "Hg10 mi
8:55 pm69 °FClear.5 mph80%30.13 "Hg10 mi
8:35 pm70 °FClear.3 mph78%30.13 "Hg10 mi
8:15 pm70 °FClear.5 mph75%30.13 "Hg10 mi
Weather by CustomWeather, © 2022

See weather overview